createdAt,value
2019-05-14T00:01:36.863Z,4.70
2019-05-14T00:06:41.917Z,4.50
2019-05-14T00:11:46.481Z,4.40
2019-05-14T00:16:51.406Z,4.70
2019-05-14T00:21:56.056Z,4.50
2019-05-14T00:27:02.084Z,4.30
2019-05-14T00:32:06.778Z,4.20
2019-05-14T00:37:11.677Z,4.50
2019-05-14T00:42:16.425Z,4.40
2019-05-14T00:47:21.771Z,4.30
2019-05-14T00:52:26.314Z,4.20
2019-05-14T00:57:31.604Z,4.10
2019-05-14T01:02:36.226Z,4.30
2019-05-14T01:07:42.373Z,4.10
2019-05-14T01:12:46.959Z,4.20
2019-05-14T01:17:51.803Z,3.90
2019-05-14T01:22:56.324Z,3.90
2019-05-14T01:28:02.084Z,3.90
2019-05-14T01:33:06.839Z,3.60
2019-05-14T01:38:11.563Z,3.50
2019-05-14T01:43:16.139Z,3.50
2019-05-14T01:48:21.957Z,3.40
2019-05-14T01:53:26.577Z,3.50
2019-05-14T01:58:31.986Z,3.20
2019-05-14T02:03:36.484Z,3.10
2019-05-14T02:08:41.451Z,3.10
2019-05-14T02:13:48.435Z,3.20
2019-05-14T02:18:52.418Z,3.10
2019-05-14T02:23:56.796Z,3.00
2019-05-14T02:29:02.081Z,3.10
2019-05-14T02:34:09.914Z,3.00
2019-05-14T02:39:12.871Z,2.90
2019-05-14T02:44:18.862Z,2.80
2019-05-14T02:49:23.440Z,2.80
2019-05-14T02:54:29.722Z,2.70
2019-05-14T02:59:34.003Z,2.70
2019-05-14T03:04:39.532Z,2.80
2019-05-14T03:09:44.512Z,2.70
2019-05-14T03:14:50.269Z,2.70
2019-05-14T03:19:55.033Z,2.60
2019-05-14T03:24:59.896Z,2.70
2019-05-14T03:30:05.741Z,2.70
2019-05-14T03:35:13.202Z,2.60
2019-05-14T03:40:19.483Z,2.60
2019-05-14T03:45:23.299Z,2.60
2019-05-14T03:50:29.831Z,2.60
2019-05-14T03:55:34.034Z,2.70
2019-05-14T04:00:52.042Z,2.90
2019-05-14T04:05:59.552Z,3.00
2019-05-14T04:11:04.452Z,3.00
2019-05-14T04:16:11.696Z,3.10
2019-05-14T04:21:20.261Z,3.20
2019-05-14T04:26:24.084Z,3.20
2019-05-14T04:31:32.761Z,3.20
2019-05-14T04:36:39.249Z,3.30
2019-05-14T04:41:43.903Z,3.50
2019-05-14T04:46:49.304Z,3.60
2019-05-14T04:51:54.015Z,3.70
2019-05-14T04:56:59.953Z,4.00
2019-05-14T05:02:09.223Z,4.30
2019-05-14T05:07:12.216Z,4.50
2019-05-14T05:12:19.462Z,4.70
2019-05-14T05:17:37.814Z,4.90
2019-05-14T05:22:28.999Z,5.10
2019-05-14T05:27:33.428Z,5.40
2019-05-14T05:32:38.868Z,5.60
2019-05-14T05:37:43.640Z,6.20
2019-05-14T05:42:48.980Z,6.30
2019-05-14T05:47:58.194Z,6.50
2019-05-14T05:52:59.847Z,6.70
2019-05-14T05:58:04.342Z,7.10
2019-05-14T06:03:11.246Z,7.40
2019-05-14T06:08:16.077Z,7.90
2019-05-14T06:13:20.576Z,8.40
2019-05-14T06:18:24.993Z,8.90
2019-05-14T06:23:29.610Z,9.20
2019-05-14T06:28:40.303Z,9.50
2019-05-14T06:33:42.930Z,9.90
2019-05-14T06:38:49.748Z,10.00
2019-05-14T06:43:55.930Z,9.60
2019-05-14T06:49:03.705Z,9.90
2019-05-14T06:54:09.252Z,10.00
2019-05-14T06:59:18.315Z,10.50
2019-05-14T07:04:22.742Z,10.80
2019-05-14T07:09:30.009Z,11.30
2019-05-14T07:14:34.433Z,11.50
2019-05-14T07:19:42.027Z,11.50
2019-05-14T07:24:49.380Z,11.70
2019-05-14T07:29:54.334Z,11.80
2019-05-14T07:34:59.625Z,11.90
2019-05-14T07:40:08.556Z,12.30
2019-05-14T07:45:13.432Z,12.70
2019-05-14T07:50:20.488Z,13.00
2019-05-14T07:55:25.005Z,13.30
2019-05-14T08:00:33.677Z,13.50
2019-05-14T08:05:39.926Z,13.70
2019-05-14T08:10:48.491Z,13.60
2019-05-14T08:15:53.984Z,13.90
2019-05-14T08:20:59.178Z,14.30
2019-05-14T08:26:04.842Z,14.10
2019-05-14T08:31:11.869Z,14.30
2019-05-14T08:36:18.337Z,14.30
2019-05-14T08:41:22.654Z,14.80
2019-05-14T08:46:28.724Z,15.20
2019-05-14T08:51:33.150Z,15.60
2019-05-14T08:56:38.960Z,15.80
2019-05-14T09:01:58.498Z,15.80
2019-05-14T09:06:51.519Z,15.40
2019-05-14T09:11:59.733Z,15.70
2019-05-14T09:17:03.631Z,15.60
2019-05-14T09:22:09.585Z,16.30
2019-05-14T09:27:15.993Z,16.60
2019-05-14T09:32:20.855Z,16.50
2019-05-14T09:37:25.294Z,16.20
2019-05-14T09:42:30.012Z,16.80
2019-05-14T09:47:34.497Z,16.70
2019-05-14T09:52:39.373Z,16.70
2019-05-14T09:57:45.386Z,17.00
2019-05-14T10:02:49.880Z,17.30
2019-05-14T10:07:54.318Z,16.90
2019-05-14T10:13:01.515Z,17.30
2019-05-14T10:18:11.129Z,17.10
2019-05-14T10:23:14.569Z,17.20
2019-05-14T10:28:22.373Z,17.00
2019-05-14T10:33:28.789Z,17.20
2019-05-14T10:38:33.130Z,17.30
2019-05-14T10:43:39.149Z,17.50
2019-05-14T10:48:43.873Z,17.60
2019-05-14T10:53:49.037Z,17.60
2019-05-14T10:58:55.313Z,17.70
2019-05-14T11:04:01.517Z,17.60
2019-05-14T11:09:09.094Z,17.80
2019-05-14T11:14:13.874Z,17.50
2019-05-14T11:19:18.942Z,16.90
2019-05-14T11:24:23.898Z,17.50
2019-05-14T11:29:29.887Z,18.10
2019-05-14T11:34:34.575Z,18.20
2019-05-14T11:39:39.211Z,18.00
2019-05-14T11:44:43.895Z,17.10
2019-05-14T11:49:49.222Z,17.40
2019-05-14T11:54:54.131Z,16.70
2019-05-14T11:59:58.689Z,17.40
2019-05-14T12:05:03.327Z,17.80
2019-05-14T12:10:09.168Z,18.00
2019-05-14T12:15:14.026Z,17.60
2019-05-14T12:20:18.774Z,17.40
2019-05-14T12:25:23.197Z,17.40
2019-05-14T12:30:28.619Z,17.10
2019-05-14T12:35:33.498Z,17.20
2019-05-14T12:40:38.378Z,17.00
2019-05-14T12:45:42.900Z,17.10
2019-05-14T12:50:48.837Z,16.80
2019-05-14T12:55:53.516Z,17.30
2019-05-14T13:00:59.452Z,17.60
2019-05-14T13:06:04.133Z,18.20
2019-05-14T13:11:09.639Z,18.00
2019-05-14T13:16:14.480Z,17.70
2019-05-14T13:21:19.377Z,18.00
2019-05-14T13:26:23.997Z,17.70
2019-05-14T13:31:29.234Z,18.10
2019-05-14T13:36:34.124Z,18.40
2019-05-14T13:41:41.835Z,18.20
2019-05-14T13:46:48.455Z,17.30
2019-05-14T13:51:51.994Z,17.10
2019-05-14T13:56:58.508Z,16.80
2019-05-14T14:02:02.891Z,17.00
2019-05-14T14:07:09.054Z,16.80
2019-05-14T14:12:13.985Z,16.60
2019-05-14T14:17:18.809Z,16.70
2019-05-14T14:22:23.222Z,16.40
2019-05-14T14:27:29.979Z,16.60
2019-05-14T14:32:34.201Z,16.40
2019-05-14T14:37:40.017Z,16.10
2019-05-14T14:42:44.765Z,16.00
2019-05-14T14:47:49.828Z,16.50
2019-05-14T14:52:54.423Z,17.30
2019-05-14T14:57:59.094Z,17.20
2019-05-14T15:03:03.607Z,17.50
2019-05-14T15:08:10.357Z,17.10
2019-05-14T15:13:14.363Z,16.30
2019-05-14T15:18:19.109Z,16.00
2019-05-14T15:23:24.121Z,15.70
2019-05-14T15:28:28.849Z,15.60
2019-05-14T15:33:34.302Z,16.40
2019-05-14T15:38:40.709Z,16.30
2019-05-14T15:43:45.462Z,16.20
2019-05-14T15:48:50.129Z,16.40
2019-05-14T15:54:15.583Z,15.80
2019-05-14T15:59:04.316Z,15.50
2019-05-14T16:04:11.524Z,15.30
2019-05-14T16:09:15.486Z,14.90
2019-05-14T16:14:20.105Z,14.90
2019-05-14T16:19:24.780Z,14.60
2019-05-14T16:24:29.203Z,14.50
2019-05-14T16:29:41.269Z,14.50
2019-05-14T16:34:41.319Z,14.30
2019-05-14T16:39:49.089Z,14.20
2019-05-14T16:44:53.543Z,14.00
2019-05-14T16:49:59.120Z,14.00
2019-05-14T16:55:20.551Z,13.70
2019-05-14T17:00:11.691Z,13.70
2019-05-14T17:05:16.523Z,13.50
2019-05-14T17:10:21.107Z,13.30
2019-05-14T17:15:25.569Z,13.10
2019-05-14T17:20:30.258Z,13.00
2019-05-14T17:25:34.869Z,12.70
2019-05-14T17:30:39.449Z,12.60
2019-05-14T17:35:44.089Z,12.50
2019-05-14T17:40:48.970Z,12.40
2019-05-14T17:45:53.738Z,12.30
2019-05-14T17:50:59.133Z,12.10
2019-05-14T17:56:04.039Z,12.10
2019-05-14T18:01:10.361Z,11.90
2019-05-14T18:06:15.019Z,11.70
2019-05-14T18:11:21.111Z,11.60
2019-05-14T18:16:25.677Z,11.40
2019-05-14T18:21:30.342Z,11.10
2019-05-14T18:26:35.069Z,11.00
2019-05-14T18:31:44.164Z,10.90
2019-05-14T18:36:48.703Z,10.70
2019-05-14T18:41:52.513Z,10.70
2019-05-14T18:46:59.326Z,10.40
2019-05-14T18:52:03.827Z,10.10
2019-05-14T18:57:11.805Z,10.00
2019-05-14T19:02:14.786Z,9.80
2019-05-14T19:07:19.373Z,9.40
2019-05-14T19:12:24.867Z,9.20
2019-05-14T19:17:29.414Z,9.10
2019-05-14T19:22:33.987Z,8.80
2019-05-14T19:27:38.493Z,9.00
2019-05-14T19:32:42.980Z,8.40
2019-05-14T19:37:48.710Z,8.50
2019-05-14T19:42:53.417Z,8.40
2019-05-14T19:47:58.425Z,8.10
2019-05-14T19:53:03.137Z,8.00
2019-05-14T19:58:07.784Z,7.70
2019-05-14T20:03:12.420Z,7.80
2019-05-14T20:08:18.935Z,7.50
2019-05-14T20:13:23.223Z,7.50
2019-05-14T20:18:28.966Z,7.20
2019-05-14T20:23:33.867Z,6.80
2019-05-14T20:28:39.058Z,7.10
2019-05-14T20:33:43.785Z,6.50
2019-05-14T20:38:48.309Z,6.60
2019-05-14T20:43:52.789Z,6.20
2019-05-14T20:48:59.129Z,6.30
2019-05-14T20:54:03.454Z,6.30
2019-05-14T20:59:10.423Z,5.90
2019-05-14T21:04:14.892Z,6.10
2019-05-14T21:09:19.384Z,5.90
2019-05-14T21:14:25.254Z,5.90
2019-05-14T21:19:29.702Z,5.90
2019-05-14T21:24:34.119Z,5.90
2019-05-14T21:29:38.646Z,5.50
2019-05-14T21:34:43.148Z,5.20
2019-05-14T21:39:49.113Z,5.20
2019-05-14T21:44:53.584Z,4.90
2019-05-14T21:49:58.070Z,5.30
2019-05-14T21:55:02.565Z,5.50
2019-05-14T22:00:20.579Z,5.20
2019-05-14T22:05:25.602Z,4.70
2019-05-14T22:10:30.247Z,4.60
2019-05-14T22:15:34.812Z,5.00
2019-05-14T22:20:39.237Z,4.50
2019-05-14T22:25:43.659Z,4.50
2019-05-14T22:30:48.270Z,4.70
2019-05-14T22:35:52.767Z,4.80
2019-05-14T22:40:59.205Z,4.40
2019-05-14T22:46:03.408Z,4.50
2019-05-14T22:51:08.694Z,4.40
2019-05-14T22:56:13.367Z,4.00
2019-05-14T23:01:18.515Z,3.80
2019-05-14T23:06:23.153Z,3.50
2019-05-14T23:11:28.818Z,3.40
2019-05-14T23:16:38.282Z,3.50
2019-05-14T23:21:39.687Z,3.90
2019-05-14T23:26:44.174Z,3.50
2019-05-14T23:31:49.015Z,3.70
2019-05-14T23:36:53.798Z,3.50
2019-05-14T23:41:58.583Z,3.40
2019-05-14T23:47:02.965Z,3.50
2019-05-14T23:52:07.545Z,3.10
2019-05-14T23:57:11.947Z,2.80
